KPDK/PDK METAR and TAF weather

Enter ICAO airport designator
Station Type Date Time Source
KPDK METAR 2021/05/12 04:53 UTC NOAA

KPDK 120453Z AUTO 00000KT 10SM OVC090 17/14 A3007 RMK AO2 SLP173 T01720144 402440156


Station Type Date Time Source
KPDK Decoded METAR 2021/05/12 04:53 UTC NOAA

ATLANTA DE KALB-PEACHTREE, GA, United States (KPDK) 33-53N 084-18W 302M
May 12, 2021 - 12:53 AM EDT / 2021.05.12 0453 UTC
Wind: Calm:0
Visibility: 10 mile(s):0
Sky conditions: overcast
Temperature: 63.0 F (17.2 C)
Dew Point: 57.9 F (14.4 C)
Relative Humidity: 83%
Pressure (altimeter): 30.07 in. Hg (1018 hPa)
ob: KPDK 120453Z AUTO 00000KT 10SM OVC090 17/14 A3007 RMK AO2 SLP173 T01720144 402440156
cycle: 5

Station Type Date Time Source
KPDK TAF 2021/05/12 04:48 UTC NOAA

TAF
AMD KPDK 120345Z 1204/1224 34007KT P6SM SCT035 BKN080
FM120500 01004KT P6SM VCSH SCT025 BKN035 OVC060
FM120700 02004KT 6SM -SHRA BR OVC015
FM120900 03005KT 4SM SHRA BR OVC007
FM121100 04007KT 3SM SHRA BR SCT005 OVC007
FM121500 06011G18KT 4SM -DZ BR OVC007
FM122000 07011G18KT 4SM BR SCT008 OVC012

Example: see airport list